createdAt,value
2022-08-16T09:30:56.236Z,523.12
2022-08-16T09:31:57.411Z,129.38
2022-08-16T09:32:56.780Z,348.75
2022-08-16T09:33:56.693Z,343.12
2022-08-16T09:34:58.276Z,337.50
2022-08-16T09:35:57.352Z,337.50
2022-08-16T09:36:56.514Z,331.88
2022-08-16T09:38:01.073Z,337.50
2022-08-16T09:38:59.809Z,337.50
2022-08-16T09:39:56.337Z,343.12
2022-08-16T09:40:56.321Z,354.38
2022-08-16T09:41:57.411Z,371.25
2022-08-16T09:42:59.069Z,84.38
2022-08-16T09:43:59.943Z,331.88
2022-08-16T09:45:11.952Z,337.50
2022-08-16T09:45:55.964Z,354.38
2022-08-16T09:46:57.758Z,405.00
2022-08-16T09:47:57.795Z,1153.12
2022-08-16T09:48:56.532Z,2086.88
2022-08-16T09:49:56.127Z,2452.50
2022-08-16T10:07:38.343Z,348.75
2022-08-16T10:08:31.173Z,376.88
2022-08-16T10:09:53.874Z,697.50
2022-08-16T10:10:31.327Z,1693.12
2022-08-16T10:11:30.964Z,2131.88
2022-08-16T10:12:30.938Z,2126.25
2022-08-16T10:13:30.859Z,2238.75
2022-08-16T10:14:32.919Z,2553.75
2022-08-16T10:15:30.709Z,2621.25
2022-08-16T10:16:30.652Z,2632.50
2022-08-16T10:17:30.650Z,2795.62
2022-08-16T10:18:56.361Z,2649.38
2022-08-16T10:19:32.085Z,2385.00
2022-08-16T10:20:30.417Z,2064.38
2022-08-16T10:21:32.044Z,933.75
2022-08-16T10:22:30.291Z,405.00
2022-08-16T10:23:30.252Z,354.38
2022-08-16T10:24:31.733Z,343.12
2022-08-16T10:27:16.247Z,337.50
2022-08-16T10:27:28.929Z,326.25
2022-08-16T10:27:56.645Z,320.62
2022-08-16T10:28:40.172Z,326.25
2022-08-16T10:30:00.924Z,326.25
2022-08-16T10:30:39.128Z,315.00
2022-08-16T10:31:44.171Z,315.00
2022-08-16T10:32:36.155Z,309.38
2022-08-16T10:33:40.489Z,303.75
2022-08-16T10:34:36.032Z,303.75
2022-08-16T10:35:37.185Z,303.75
2022-08-16T10:36:39.405Z,298.12
2022-08-16T10:37:36.654Z,298.12
2022-08-16T10:38:37.104Z,298.12
2022-08-16T10:39:41.865Z,303.75
2022-08-16T10:40:35.706Z,298.12
2022-08-16T10:41:35.628Z,286.88
2022-08-16T10:42:35.542Z,286.88
2022-08-16T10:43:35.519Z,286.88
2022-08-16T10:44:35.432Z,281.25
2022-08-16T10:45:37.061Z,281.25
2022-08-16T10:46:40.715Z,275.62
2022-08-16T10:47:38.688Z,275.62
2022-08-16T10:48:35.222Z,270.00
